Kuo Long — VRQF2 — position and weather

sailwx.info

Track history (hours):
 
Tides and Currents Weather Stations Pressure Air Temp Water Temp Dewpoint Dewpoint Depression Visibility Wind Speed Wind Dir Waves Ship Positions

Kuo Long

Last reported at 2017-Sep-21 19:32 UTC. Time now 2017-Sep-23 23:43 UTC.
Position N 22°31' E 119°53'.

Length 170 m; draft 7.9 m.

Type: Ship (hazmat cat A). MMSI: 477884200.

Date/timePositionNaut miles runAvg speedWind from/ knotsBaromVisibWave heightAir tempDewpointWater temp
2017-Sep-21 19:32N 22°31' E 119°53'217.4
2017-Sep-21 19:26N 22°31' E 119°55'817.6
2017-Sep-21 19:00N 22°31' E 120°03'917.6
2017-Sep-21 18:30N 22°32' E 120°12'612.8
2017-Sep-21 18:00N 22°33' E 120°19'1 0.3
2017-Sep-21 16:12N 22°34' E 120°19'0 0.0
2017-Sep-21 16:00N 22°34' E 120°19'0 0.0
2017-Sep-21 15:30N 22°34' E 120°19'0 0.0
2017-Sep-21 13:27N 22°34' E 120°19'0 0.0
2017-Sep-21 11:15N 22°34' E 120°19'0 0.0
2017-Sep-21 10:45N 22°34' E 120°19'0 0.0
2017-Sep-21 10:30N 22°34' E 120°19'0 0.0
2017-Sep-21 09:22N 22°34' E 120°19'1 2.6
2017-Sep-21 09:00N 22°33' E 120°18'3 5.8
2017-Sep-21 08:31N 22°33' E 120°15'2 4.1
2017-Sep-21 08:00N 22°31' E 120°14'2 3.3
2017-Sep-21 07:31N 22°31' E 120°12'4 7.0
2017-Sep-21 07:00N 22°34' E 120°12'713.8
2017-Sep-21 06:30N 22°40' E 120°08'714.7
2017-Sep-21 06:00N 22°46' E 120°04'2317.1
2017-Sep-21 04:38N 23°08' E 119°55'318.5
2017-Sep-21 04:30N 23°11' E 119°55'918.0
2017-Sep-21 04:00N 23°20' E 119°55'917.3
2017-Sep-21 03:30N 23°28' E 119°55'1016.3
2017-Sep-21 02:53N 23°39' E 119°56'616.1
2017-Sep-21 02:31N 23°45' E 119°57'2215.2
2017-Sep-21 01:03N 24°05' E 120°06'115.2
2017-Sep-21 01:00N 24°06' E 120°07'815.9
2017-Sep-21 00:29N 24°13' E 120°11'1216.6
2017-Sep-20 23:47N 24°22' E 120°19'416.4
2017-Sep-20 23:31N 24°26' E 120°21'916.6
2017-Sep-20 22:58N 24°33' E 120°27'817.7
2017-Sep-20 22:31N 24°40' E 120°32'1117.8
2017-Sep-20 21:54N 24°49' E 120°38'  
2017-Sep-17 23:51N 33°57' E 134°54'617.8
2017-Sep-17 23:30N 34°03' E 134°56'918.1
2017-Sep-17 23:00N 34°11' E 134°58'713.1
2017-Sep-17 22:30N 34°18' E 134°59'815.2
2017-Sep-17 22:00N 34°24' E 135°04'1 2.7
2017-Sep-17 21:29N 34°25' E 135°05'0 0.0
2017-Sep-17 20:23N 34°25' E 135°05'0 0.0
2017-Sep-17 19:12N 34°25' E 135°05'0 0.0
2017-Sep-17 18:56N 34°25' E 135°05'0 0.0
2017-Sep-17 18:30N 34°25' E 135°05'0 0.0
2017-Sep-17 17:44N 34°25' E 135°05'0 0.2
2017-Sep-17 17:29N 34°25' E 135°05'0 0.1
2017-Sep-17 16:56N 34°25' E 135°05'0 0.0
2017-Sep-17 16:21N 34°25' E 135°05'0 0.1
2017-Sep-17 15:51N 34°25' E 135°05'0 0.2
2017-Sep-17 15:27N 34°25' E 135°05'0 0.0
2017-Sep-17 14:54N 34°25' E 135°05'0 0.0
2017-Sep-17 14:29N 34°25' E 135°05'0 0.1
2017-Sep-17 13:41N 34°25' E 135°05'0 0.4
2017-Sep-17 13:25N 34°25' E 135°05'0 0.0
2017-Sep-17 12:49N 34°25' E 135°05'0 0.5
2017-Sep-17 12:30N 34°25' E 135°05'0 0.1
2017-Sep-17 12:00N 34°25' E 135°05'0 0.1
2017-Sep-17 11:24N 34°25' E 135°05'0 0.0
2017-Sep-16 17:57N 34°25' E 135°05'0 0.2
2017-Sep-16 17:30N 34°25' E 135°05'1 2.1
2017-Sep-16 17:00N 34°26' E 135°05'713.9
2017-Sep-16 16:30N 34°31' E 135°10'917.2
2017-Sep-16 16:00N 34°38' E 135°16'2 4.1
2017-Sep-16 15:28N 34°40' E 135°14'0 0.0
2017-Sep-16 14:58N 34°40' E 135°14'0 0.0
2017-Sep-16 14:28N 34°40' E 135°14'0 0.0
2017-Sep-16 13:52N 34°40' E 135°14'0 0.0
2017-Sep-16 13:28N 34°40' E 135°14'0 0.0
2017-Sep-16 12:58N 34°40' E 135°14'0 0.0
2017-Sep-16 12:28N 34°40' E 135°14'0 0.0
2017-Sep-16 11:52N 34°40' E 135°14'0 0.0
2017-Sep-16 11:28N 34°40' E 135°14'0 0.0
2017-Sep-16 10:58N 34°40' E 135°14'0 0.0
2017-Sep-16 10:28N 34°40' E 135°14'0 0.0
2017-Sep-16 09:58N 34°40' E 135°14'0 0.0
2017-Sep-16 09:22N 34°40' E 135°14'0 0.0
2017-Sep-16 08:58N 34°40' E 135°14'0 0.0
2017-Sep-16 08:16N 34°40' E 135°14'0 0.0
2017-Sep-16 07:40N 34°40' E 135°14'0 0.0
2017-Sep-16 07:30N 34°40' E 135°14'3 6.6
2017-Sep-16 07:00N 34°38' E 135°18'611.1
2017-Sep-16 06:30N 34°39' E 135°24'0 0.3
2017-Sep-16 05:55N 34°39' E 135°24'0 0.0
2017-Sep-16 05:26N 34°39' E 135°24'0 0.0
2017-Sep-16 04:49N 34°39' E 135°24'0 0.0
2017-Sep-16 04:25N 34°39' E 135°24'0 0.0
2017-Sep-16 03:49N 34°39' E 135°24'0 0.0
2017-Sep-16 03:25N 34°39' E 135°24'0 0.0
2017-Sep-16 02:49N 34°39' E 135°24'0 0.0
2017-Sep-16 02:20N 34°39' E 135°24'0 0.0
2017-Sep-16 01:44N 34°39' E 135°24'0 0.0
2017-Sep-16 01:07N 34°39' E 135°24'0 0.0
2017-Sep-16 00:55N 34°39' E 135°24'0 0.0
2017-Sep-16 00:19N 34°39' E 135°24'0 0.0
2017-Sep-15 23:55N 34°39' E 135°24'0 0.3
2017-Sep-15 23:30N 34°39' E 135°24'4 8.0
2017-Sep-15 23:01N 34°36' E 135°20'816.3
2017-Sep-15 22:30N 34°30' E 135°13'816.3
2017-Sep-15 22:01N 34°25' E 135°07'816.7
2017-Sep-15 21:30N 34°18' E 134°60'815.8
2017-Sep-15 21:01N 34°10' E 134°60'510.9
2017-Sep-15 20:30N 34°05' E 134°60'713.0
2017-Sep-15 20:00N 33°59' E 134°59'219 5.7
2017-Sep-14 05:53N 34°47' E 139°17'716.9
2017-Sep-14 05:30N 34°52' E 139°23'917.5
2017-Sep-14 05:00N 34°58' E 139°31'918.1
2017-Sep-14 04:31N 35°03' E 139°39'917.4
2017-Sep-14 04:01N 35°11' E 139°45'611.6
2017-Sep-14 03:30N 35°16' E 139°45'612.8
2017-Sep-14 03:00N 35°22' E 139°42'5 9.2
2017-Sep-14 02:30N 35°27' E 139°41'1 1.0
2017-Sep-14 02:00N 35°26' E 139°41'0 0.0
2017-Sep-14 01:30N 35°26' E 139°41'0 0.0
2017-Sep-14 01:00N 35°26' E 139°41'0 0.0
2017-Sep-14 00:30N 35°26' E 139°41'0 0.0
2017-Sep-14 00:00N 35°26' E 139°41'0 0.0
2017-Sep-13 23:30N 35°26' E 139°41'0 0.0
2017-Sep-13 23:00N 35°26' E 139°41'0 0.0
2017-Sep-13 22:30N 35°26' E 139°41'0 0.0
2017-Sep-13 22:00N 35°26' E 139°41'0 0.0
2017-Sep-13 21:30N 35°26' E 139°41'0 0.0
2017-Sep-13 21:00N 35°26' E 139°41'0 0.0
2017-Sep-13 20:30N 35°26' E 139°41'0 0.0
2017-Sep-13 20:00N 35°26' E 139°41'0 0.0
2017-Sep-13 19:30N 35°26' E 139°41'0 0.0
2017-Sep-13 19:00N 35°26' E 139°41'0 0.0
2017-Sep-13 18:30N 35°26' E 139°41'0 0.0
2017-Sep-13 18:00N 35°26' E 139°41'0 0.0
2017-Sep-13 17:30N 35°26' E 139°41'0 0.0
2017-Sep-13 17:00N 35°26' E 139°41'0 0.0
2017-Sep-13 16:30N 35°26' E 139°41'0 0.0
2017-Sep-13 16:00N 35°26' E 139°41'0 0.0
2017-Sep-13 15:30N 35°26' E 139°41'0 0.1
2017-Sep-13 15:00N 35°26' E 139°41'0 0.1
2017-Sep-13 14:30N 35°26' E 139°41'0 0.0
2017-Sep-13 14:00N 35°26' E 139°41'1 1.2
2017-Sep-13 13:31N 35°27' E 139°41'5 9.6
2017-Sep-13 13:00N 35°27' E 139°47'713.3
2017-Sep-13 12:30N 35°34' E 139°49'5 9.5
2017-Sep-13 12:00N 35°37' E 139°46'0 0.3
2017-Sep-13 11:28N 35°37' E 139°46'0 0.0
2017-Sep-13 10:58N 35°37' E 139°46'0 0.0
2017-Sep-13 10:28N 35°37' E 139°46'0 0.0
2017-Sep-13 09:58N 35°37' E 139°46'0 0.0
2017-Sep-13 09:28N 35°37' E 139°46'0 0.0
2017-Sep-13 08:58N 35°37' E 139°46'0 0.0
2017-Sep-13 08:28N 35°37' E 139°46'0 0.0
2017-Sep-13 07:58N 35°37' E 139°46'0 0.0
2017-Sep-13 07:28N 35°37' E 139°46'0 0.0
2017-Sep-13 06:58N 35°37' E 139°46'0 0.0
2017-Sep-13 06:16N 35°37' E 139°46'0 0.0
2017-Sep-13 05:58N 35°37' E 139°46'0 0.0
2017-Sep-13 05:25N 35°37' E 139°46'0 0.0
2017-Sep-13 04:55N 35°37' E 139°46'0 0.0
2017-Sep-13 04:25N 35°37' E 139°46'0 0.0
2017-Sep-13 03:55N 35°37' E 139°46'0 0.0
2017-Sep-13 03:28N 35°37' E 139°46'0 0.0
2017-Sep-13 02:58N 35°37' E 139°46'0 0.0
2017-Sep-13 02:28N 35°37' E 139°46'0 0.0
2017-Sep-13 01:58N 35°37' E 139°46'0 0.0
2017-Sep-13 01:28N 35°37' E 139°46'0 0.0
2017-Sep-13 00:58N 35°37' E 139°46'0 0.0
2017-Sep-13 00:30N 35°37' E 139°46'1 2.8
2017-Sep-13 00:00N 35°36' E 139°47'510.1
2017-Sep-12 23:30N 35°33' E 139°51'612.1
2017-Sep-12 23:00N 35°27' E 139°49'714.1
2017-Sep-12 22:30N 35°21' E 139°45'611.6
2017-Sep-12 22:00N 35°15' E 139°47'612.3
2017-Sep-12 21:30N 35°09' E 139°46'5 9.5
2017-Sep-12 21:00N 35°05' E 139°45'816.8
2017-Sep-12 20:30N 34°59' E 139°37'1122.0
2017-Sep-12 20:00N 34°53' E 139°26'1122.3
2017-Sep-12 19:30N 34°46' E 139°16'  
Track history (hours):
 
Tides and Currents Weather Stations Pressure Air Temp Water Temp Dewpoint Dewpoint Depression Visibility Wind Speed Wind Dir Waves Ship Positions

Kuo Long

Last reported at 2017-Sep-21 19:32 UTC. Time now 2017-Sep-23 23:43 UTC.
Position N 22°31' E 119°53'.

Length 170 m; draft 7.9 m.

Type: Ship (hazmat cat A). MMSI: 477884200.

Date/timePositionNaut miles runAvg speedWind from/ knotsBaromVisibWave heightAir tempDewpointWater temp
2017-Sep-21 19:32N 22°31' E 119°53'217.4
2017-Sep-21 19:26N 22°31' E 119°55'817.6
2017-Sep-21 19:00N 22°31' E 120°03'917.6
2017-Sep-21 18:30N 22°32' E 120°12'612.8
2017-Sep-21 18:00N 22°33' E 120°19'1 0.3
2017-Sep-21 16:12N 22°34' E 120°19'0 0.0
2017-Sep-21 16:00N 22°34' E 120°19'0 0.0
2017-Sep-21 15:30N 22°34' E 120°19'0 0.0
2017-Sep-21 13:27N 22°34' E 120°19'0 0.0
2017-Sep-21 11:15N 22°34' E 120°19'0 0.0
2017-Sep-21 10:45N 22°34' E 120°19'0 0.0
2017-Sep-21 10:30N 22°34' E 120°19'0 0.0
2017-Sep-21 09:22N 22°34' E 120°19'1 2.6
2017-Sep-21 09:00N 22°33' E 120°18'3 5.8
2017-Sep-21 08:31N 22°33' E 120°15'2 4.1
2017-Sep-21 08:00N 22°31' E 120°14'2 3.3
2017-Sep-21 07:31N 22°31' E 120°12'4 7.0
2017-Sep-21 07:00N 22°34' E 120°12'713.8
2017-Sep-21 06:30N 22°40' E 120°08'714.7
2017-Sep-21 06:00N 22°46' E 120°04'2317.1
2017-Sep-21 04:38N 23°08' E 119°55'318.5
2017-Sep-21 04:30N 23°11' E 119°55'918.0
2017-Sep-21 04:00N 23°20' E 119°55'917.3
2017-Sep-21 03:30N 23°28' E 119°55'1016.3
2017-Sep-21 02:53N 23°39' E 119°56'616.1
2017-Sep-21 02:31N 23°45' E 119°57'2215.2
2017-Sep-21 01:03N 24°05' E 120°06'115.2
2017-Sep-21 01:00N 24°06' E 120°07'815.9
2017-Sep-21 00:29N 24°13' E 120°11'1216.6
2017-Sep-20 23:47N 24°22' E 120°19'416.4
2017-Sep-20 23:31N 24°26' E 120°21'916.6
2017-Sep-20 22:58N 24°33' E 120°27'817.7
2017-Sep-20 22:31N 24°40' E 120°32'1117.8
2017-Sep-20 21:54N 24°49' E 120°38'  
2017-Sep-17 23:51N 33°57' E 134°54'617.8
2017-Sep-17 23:30N 34°03' E 134°56'918.1
2017-Sep-17 23:00N 34°11' E 134°58'713.1
2017-Sep-17 22:30N 34°18' E 134°59'815.2
2017-Sep-17 22:00N 34°24' E 135°04'1 2.7
2017-Sep-17 21:29N 34°25' E 135°05'0 0.0
2017-Sep-17 20:23N 34°25' E 135°05'0 0.0
2017-Sep-17 19:12N 34°25' E 135°05'0 0.0
2017-Sep-17 18:56N 34°25' E 135°05'0 0.0
2017-Sep-17 18:30N 34°25' E 135°05'0 0.0
2017-Sep-17 17:44N 34°25' E 135°05'0 0.2
2017-Sep-17 17:29N 34°25' E 135°05'0 0.1
2017-Sep-17 16:56N 34°25' E 135°05'0 0.0
2017-Sep-17 16:21N 34°25' E 135°05'0 0.1
2017-Sep-17 15:51N 34°25' E 135°05'0 0.2
2017-Sep-17 15:27N 34°25' E 135°05'0 0.0
2017-Sep-17 14:54N 34°25' E 135°05'0 0.0
2017-Sep-17 14:29N 34°25' E 135°05'0 0.1
2017-Sep-17 13:41N 34°25' E 135°05'0 0.4
2017-Sep-17 13:25N 34°25' E 135°05'0 0.0
2017-Sep-17 12:49N 34°25' E 135°05'0 0.5
2017-Sep-17 12:30N 34°25' E 135°05'0 0.1
2017-Sep-17 12:00N 34°25' E 135°05'0 0.1
2017-Sep-17 11:24N 34°25' E 135°05'0 0.0
2017-Sep-16 17:57N 34°25' E 135°05'0 0.2
2017-Sep-16 17:30N 34°25' E 135°05'1 2.1
2017-Sep-16 17:00N 34°26' E 135°05'713.9
2017-Sep-16 16:30N 34°31' E 135°10'917.2
2017-Sep-16 16:00N 34°38' E 135°16'2 4.1
2017-Sep-16 15:28N 34°40' E 135°14'0 0.0
2017-Sep-16 14:58N 34°40' E 135°14'0 0.0
2017-Sep-16 14:28N 34°40' E 135°14'0 0.0
2017-Sep-16 13:52N 34°40' E 135°14'0 0.0
2017-Sep-16 13:28N 34°40' E 135°14'0 0.0
2017-Sep-16 12:58N 34°40' E 135°14'0 0.0
2017-Sep-16 12:28N 34°40' E 135°14'0 0.0
2017-Sep-16 11:52N 34°40' E 135°14'0 0.0
2017-Sep-16 11:28N 34°40' E 135°14'0 0.0
2017-Sep-16 10:58N 34°40' E 135°14'0 0.0
2017-Sep-16 10:28N 34°40' E 135°14'0 0.0
2017-Sep-16 09:58N 34°40' E 135°14'0 0.0
2017-Sep-16 09:22N 34°40' E 135°14'0 0.0
2017-Sep-16 08:58N 34°40' E 135°14'0 0.0
2017-Sep-16 08:16N 34°40' E 135°14'0 0.0
2017-Sep-16 07:40N 34°40' E 135°14'0 0.0
2017-Sep-16 07:30N 34°40' E 135°14'3 6.6
2017-Sep-16 07:00N 34°38' E 135°18'611.1
2017-Sep-16 06:30N 34°39' E 135°24'0 0.3
2017-Sep-16 05:55N 34°39' E 135°24'0 0.0
2017-Sep-16 05:26N 34°39' E 135°24'0 0.0
2017-Sep-16 04:49N 34°39' E 135°24'0 0.0
2017-Sep-16 04:25N 34°39' E 135°24'0 0.0
2017-Sep-16 03:49N 34°39' E 135°24'0 0.0
2017-Sep-16 03:25N 34°39' E 135°24'0 0.0
2017-Sep-16 02:49N 34°39' E 135°24'0 0.0
2017-Sep-16 02:20N 34°39' E 135°24'0 0.0
2017-Sep-16 01:44N 34°39' E 135°24'0 0.0
2017-Sep-16 01:07N 34°39' E 135°24'0 0.0
2017-Sep-16 00:55N 34°39' E 135°24'0 0.0
2017-Sep-16 00:19N 34°39' E 135°24'0 0.0
2017-Sep-15 23:55N 34°39' E 135°24'0 0.3
2017-Sep-15 23:30N 34°39' E 135°24'4 8.0
2017-Sep-15 23:01N 34°36' E 135°20'816.3
2017-Sep-15 22:30N 34°30' E 135°13'816.3
2017-Sep-15 22:01N 34°25' E 135°07'816.7
2017-Sep-15 21:30N 34°18' E 134°60'815.8
2017-Sep-15 21:01N 34°10' E 134°60'510.9
2017-Sep-15 20:30N 34°05' E 134°60'713.0
2017-Sep-15 20:00N 33°59' E 134°59'219 5.7
2017-Sep-14 05:53N 34°47' E 139°17'716.9
2017-Sep-14 05:30N 34°52' E 139°23'917.5
2017-Sep-14 05:00N 34°58' E 139°31'918.1
2017-Sep-14 04:31N 35°03' E 139°39'917.4
2017-Sep-14 04:01N 35°11' E 139°45'611.6
2017-Sep-14 03:30N 35°16' E 139°45'612.8
2017-Sep-14 03:00N 35°22' E 139°42'5 9.2
2017-Sep-14 02:30N 35°27' E 139°41'1 1.0
2017-Sep-14 02:00N 35°26' E 139°41'0 0.0
2017-Sep-14 01:30N 35°26' E 139°41'0 0.0
2017-Sep-14 01:00N 35°26' E 139°41'0 0.0
2017-Sep-14 00:30N 35°26' E 139°41'0 0.0
2017-Sep-14 00:00N 35°26' E 139°41'0 0.0
2017-Sep-13 23:30N 35°26' E 139°41'0 0.0
2017-Sep-13 23:00N 35°26' E 139°41'0 0.0
2017-Sep-13 22:30N 35°26' E 139°41'0 0.0
2017-Sep-13 22:00N 35°26' E 139°41'0 0.0
2017-Sep-13 21:30N 35°26' E 139°41'0 0.0
2017-Sep-13 21:00N 35°26' E 139°41'0 0.0
2017-Sep-13 20:30N 35°26' E 139°41'0 0.0
2017-Sep-13 20:00N 35°26' E 139°41'0 0.0
2017-Sep-13 19:30N 35°26' E 139°41'0 0.0
2017-Sep-13 19:00N 35°26' E 139°41'0 0.0
2017-Sep-13 18:30N 35°26' E 139°41'0 0.0
2017-Sep-13 18:00N 35°26' E 139°41'0 0.0
2017-Sep-13 17:30N 35°26' E 139°41'0 0.0
2017-Sep-13 17:00N 35°26' E 139°41'0 0.0
2017-Sep-13 16:30N 35°26' E 139°41'0 0.0
2017-Sep-13 16:00N 35°26' E 139°41'0 0.0
2017-Sep-13 15:30N 35°26' E 139°41'0 0.1
2017-Sep-13 15:00N 35°26' E 139°41'0 0.1
2017-Sep-13 14:30N 35°26' E 139°41'0 0.0
2017-Sep-13 14:00N 35°26' E 139°41'1 1.2
2017-Sep-13 13:31N 35°27' E 139°41'5 9.6
2017-Sep-13 13:00N 35°27' E 139°47'713.3
2017-Sep-13 12:30N 35°34' E 139°49'5 9.5
2017-Sep-13 12:00N 35°37' E 139°46'0 0.3
2017-Sep-13 11:28N 35°37' E 139°46'0 0.0
2017-Sep-13 10:58N 35°37' E 139°46'0 0.0
2017-Sep-13 10:28N 35°37' E 139°46'0 0.0
2017-Sep-13 09:58N 35°37' E 139°46'0 0.0
2017-Sep-13 09:28N 35°37' E 139°46'0 0.0
2017-Sep-13 08:58N 35°37' E 139°46'0 0.0
2017-Sep-13 08:28N 35°37' E 139°46'0 0.0
2017-Sep-13 07:58N 35°37' E 139°46'0 0.0
2017-Sep-13 07:28N 35°37' E 139°46'0 0.0
2017-Sep-13 06:58N 35°37' E 139°46'0 0.0
2017-Sep-13 06:16N 35°37' E 139°46'0 0.0
2017-Sep-13 05:58N 35°37' E 139°46'0 0.0
2017-Sep-13 05:25N 35°37' E 139°46'0 0.0
2017-Sep-13 04:55N 35°37' E 139°46'0 0.0
2017-Sep-13 04:25N 35°37' E 139°46'0 0.0
2017-Sep-13 03:55N 35°37' E 139°46'0 0.0
2017-Sep-13 03:28N 35°37' E 139°46'0 0.0
2017-Sep-13 02:58N 35°37' E 139°46'0 0.0
2017-Sep-13 02:28N 35°37' E 139°46'0 0.0
2017-Sep-13 01:58N 35°37' E 139°46'0 0.0
2017-Sep-13 01:28N 35°37' E 139°46'0 0.0
2017-Sep-13 00:58N 35°37' E 139°46'0 0.0
2017-Sep-13 00:30N 35°37' E 139°46'1 2.8
2017-Sep-13 00:00N 35°36' E 139°47'510.1
2017-Sep-12 23:30N 35°33' E 139°51'612.1
2017-Sep-12 23:00N 35°27' E 139°49'714.1
2017-Sep-12 22:30N 35°21' E 139°45'611.6
2017-Sep-12 22:00N 35°15' E 139°47'612.3
2017-Sep-12 21:30N 35°09' E 139°46'5 9.5
2017-Sep-12 21:00N 35°05' E 139°45'816.8
2017-Sep-12 20:30N 34°59' E 139°37'1122.0
2017-Sep-12 20:00N 34°53' E 139°26'1122.3
2017-Sep-12 19:30N 34°46' E 139°16'  

Dump ship's entire track history